Pettibone, Texas
Current Conditions -  °F | °C
As of 11:55 AM on Monday 24 Nov 2014 (Local Time) from KT35 Reporting Station
Clear Clear  
Wind Chill: 60°   Ceiling: Unl
Heat Index: 60°   Visibility: 10mi
Dew Point: 37°   Wind: 7mph
Humidity: 42%   Direction: 350°N
Pressure: 30.09"   Gusts: NA
Location:  30.8332°N, 96.9826°W
Report Text: KT35 241755Z AUTO 35006KT 10SM CLR 16/03 A3009 RMK AO2 T01550027 10155 20062
Loading
Personal Weather Stations






























Interactive Weather Map New forecast layout! Learn more

10-Day Weather Forecast

Advertisements
Track Severe Weather on mobile